Time;durP1;ratioP1;P1;durP2;ratioP2;P2;SDS_P1;SDS_P2;PMS_P1;PMS_P2;Temp;Humidity;BMP_temperature;BMP_pressure;BME280_temperature;BME280_humidity;BME280_pressure;Samples;Min_cycle;Max_cycle;Signal;HPM_P1;HPM_P2
2022/03/24 05:22:05;;;;;;;30.60;9.23;;;-0.90;98.40;;;;;;4763037;23;20060;31
2022/03/24 05:27:20;;;;;;;19.08;8.27;;;-0.90;94.00;;;;;;4940936;23;20044;-83
2022/03/24 05:32:15;;;;;;;16.10;8.20;;;-1.00;95.10;;;;;;5631903;23;20092;-83
2022/03/24 06:45:13;;;;;;;13.10;6.57;;;2.50;87.70;;;;;;5384263;23;20084;-82
2022/03/24 06:47:40;;;;;;;13.50;6.72;;;3.20;87.70;;;;;;4924451;29;20020;-81
2022/03/24 07:29:00;;;;;;;10.57;5.80;;;5.90;79.80;;;;;;5190837;23;20052;-83
2022/03/24 07:48:32;;;;;;;13.65;7.88;;;7.50;71.80;;;;;;5128036;23;20040;-91
2022/03/24 08:09:43;;;;;;;7.60;5.10;;;9.60;67.40;;;;;;4658694;23;20096;-89
2022/03/24 08:17:20;;;;;;;17.48;6.80;;;10.40;66.30;;;;;;5218898;23;20071;-82
2022/03/24 08:30:53;;;;;;;7.18;5.60;;;11.60;63.30;;;;;;4934371;23;20052;-79
2022/03/24 08:33:18;;;;;;;14.07;6.20;;;11.90;62.80;;;;;;4926906;29;20039;-80
2022/03/24 08:35:44;;;;;;;5.43;4.72;;;12.10;61.00;;;;;;4907848;29;20024;-80
2022/03/24 08:38:10;;;;;;;11.27;7.18;;;12.40;58.20;;;;;;4907504;29;20492;-79
2022/03/24 08:40:36;;;;;;;9.65;4.60;;;12.70;56.20;;;;;;4930151;23;20042;-79
2022/03/24 08:43:03;;;;;;;11.50;2.95;;;12.90;52.30;;;;;;4929064;23;20504;-80
2022/03/24 08:45:30;;;;;;;6.25;3.22;;;13.20;50.90;;;;;;4925867;29;20500;-80
2022/03/24 08:47:55;;;;;;;5.22;2.45;;;13.40;48.20;;;;;;4906728;29;20032;-80
2022/03/24 08:50:21;;;;;;;4.88;2.90;;;13.70;47.60;;;;;;4921182;29;20017;-81
2022/03/24 08:52:48;;;;;;;5.10;2.90;;;13.90;46.00;;;;;;4902756;29;20388;-80
2022/03/24 08:55:14;;;;;;;5.35;2.92;;;14.10;44.70;;;;;;4919028;29;20024;-79
2022/03/24 08:57:41;;;;;;;13.93;9.02;;;14.20;43.00;;;;;;4919140;29;20036;-80
2022/03/24 09:00:12;;;;;;;6.18;3.47;;;14.50;45.40;;;;;;4900847;29;20128;-80
2022/03/24 09:02:40;;;;;;;4.75;3.78;;;14.60;45.40;;;;;;4900438;29;20547;-80
2022/03/24 09:05:06;;;;;;;5.88;3.33;;;14.80;46.50;;;;;;4916902;29;20365;-79
2022/03/24 09:07:31;;;;;;;7.75;3.83;;;14.80;45.30;;;;;;4900393;29;20029;-81
2022/03/24 09:09:57;;;;;;;7.43;4.15;;;14.90;44.20;;;;;;4900600;29;20032;-80
2022/03/24 09:12:24;;;;;;;8.77;3.53;;;15.10;45.50;;;;;;4916601;29;20076;-80
2022/03/24 09:14:50;;;;;;;4.97;3.25;;;15.20;44.60;;;;;;4917130;29;20024;-79
2022/03/24 09:17:15;;;;;;;6.13;3.47;;;15.40;45.70;;;;;;4916995;29;20083;-80
2022/03/24 09:19:41;;;;;;;8.65;3.97;;;15.50;45.30;;;;;;4916874;29;20088;-80
2022/03/24 09:22:07;;;;;;;3.78;3.05;;;15.50;45.10;;;;;;4917005;29;20031;-80
2022/03/24 09:24:33;;;;;;;5.53;3.40;;;15.60;44.90;;;;;;4899601;29;20032;-81
2022/03/24 09:26:59;;;;;;;7.22;2.80;;;15.70;46.80;;;;;;4916862;29;20084;-81
2022/03/24 09:29:25;;;;;;;8.55;3.40;;;16.00;43.70;;;;;;4916601;29;20465;-80
2022/03/24 09:31:51;;;;;;;7.35;3.38;;;16.10;43.80;;;;;;4916792;29;20055;-80
2022/03/24 09:34:17;;;;;;;6.00;3.33;;;16.20;44.70;;;;;;4916617;29;20032;-80
2022/03/24 09:36:42;;;;;;;7.70;3.10;;;16.30;44.90;;;;;;4916494;29;20079;-80
2022/03/24 09:39:08;;;;;;;5.43;3.60;;;16.40;45.00;;;;;;4899555;29;20036;-81
2022/03/24 09:41:36;;;;;;;6.78;3.60;;;16.50;44.70;;;;;;4916766;29;20024;-80
2022/03/24 09:44:03;;;;;;;3.90;2.67;;;16.70;44.30;;;;;;4899660;29;20052;-81
2022/03/24 09:46:29;;;;;;;4.90;2.70;;;16.70;43.00;;;;;;4916620;29;20038;-80
2022/03/24 09:48:55;;;;;;;6.53;2.70;;;16.80;44.30;;;;;;4916018;29;20032;-81
2022/03/24 09:51:23;;;;;;;5.97;3.58;;;16.90;43.60;;;;;;4916122;29;20571;-88
2022/03/24 09:53:49;;;;;;;3.13;2.70;;;17.00;44.20;;;;;;4916311;29;20107;-80
2022/03/24 09:56:16;;;;;;;5.95;3.28;;;17.10;43.10;;;;;;4916046;29;20501;-82
2022/03/24 09:58:44;;;;;;;4.22;2.72;;;17.10;42.50;;;;;;4899734;29;20107;-80
2022/03/24 10:01:13;;;;;;;5.60;2.97;;;17.30;43.00;;;;;;4916646;29;20026;-84
2022/03/24 10:03:39;;;;;;;7.55;3.10;;;17.30;43.40;;;;;;4899313;29;20028;-83
2022/03/24 10:06:07;;;;;;;5.45;3.25;;;17.30;43.40;;;;;;4916002;29;20078;-79
2022/03/24 10:08:34;;;;;;;3.90;3.05;;;17.40;43.20;;;;;;4916289;29;20040;-79
2022/03/24 10:11:06;;;;;;;6.57;2.78;;;17.50;41.60;;;;;;4915944;29;20084;-79
2022/03/24 10:13:57;;;;;;;5.07;2.58;;;17.60;41.50;;;;;;4899294;29;20480;-79
2022/03/24 10:16:40;;;;;;;5.97;3.03;;;17.60;41.40;;;;;;4906997;29;20181;-79
2022/03/24 10:19:17;;;;;;;5.30;2.80;;;17.60;42.20;;;;;;4898535;29;20047;-79
2022/03/24 10:21:49;;;;;;;6.25;3.33;;;17.70;40.30;;;;;;4915349;29;20115;-78
2022/03/24 10:24:14;;;;;;;10.02;2.80;;;17.80;41.70;;;;;;4901105;29;20075;-78
2022/03/24 10:27:03;;;;;;;4.13;3.05;;;17.80;42.30;;;;;;4919105;29;20036;-79
2022/03/24 10:29:31;;;;;;;7.68;3.42;;;17.80;41.40;;;;;;4919048;29;20063;-81
2022/03/24 10:32:00;;;;;;;5.13;2.88;;;17.70;40.20;;;;;;4919135;29;20031;-79
2022/03/24 10:34:36;;;;;;;3.85;2.80;;;17.70;40.30;;;;;;4902259;29;20036;-83
2022/03/24 10:37:07;;;;;;;6.60;3.30;;;17.70;39.60;;;;;;4919230;29;20032;-79
2022/03/24 10:39:38;;;;;;;4.30;2.55;;;17.70;41.80;;;;;;4919389;29;20120;-79
2022/03/24 10:42:16;;;;;;;2.92;2.65;;;17.70;39.50;;;;;;4919455;29;20484;-79
2022/03/24 10:45:00;;;;;;;5.00;2.60;;;17.70;39.60;;;;;;4918874;29;20056;-80
2022/03/24 10:47:40;;;;;;;6.15;3.00;;;17.80;40.40;;;;;;4903874;29;20051;-80
2022/03/24 10:50:25;;;;;;;4.13;2.92;;;17.90;40.90;;;;;;4906342;29;20111;-77
2022/03/24 10:52:53;;;;;;;7.55;2.67;;;18.00;39.20;;;;;;4923662;29;20024;-79
2022/03/24 10:55:26;;;;;;;5.68;3.15;;;18.10;40.30;;;;;;4920263;29;20076;-78
2022/03/24 10:57:53;;;;;;;5.35;2.90;;;18.20;39.10;;;;;;4919167;29;20032;-80
2022/03/24 11:00:20;;;;;;;3.28;2.20;;;18.30;40.50;;;;;;4919233;29;20039;-90
2022/03/24 11:02:46;;;;;;;6.68;2.92;;;18.40;40.40;;;;;;4919075;29;20024;-81
2022/03/24 11:05:15;;;;;;;5.82;2.60;;;18.50;38.80;;;;;;4901847;29;20028;-90
2022/03/24 11:07:40;;;;;;;4.60;2.55;;;18.40;38.90;;;;;;4919110;29;20051;-78
2022/03/24 11:10:16;;;;;;;11.50;2.60;;;18.50;38.80;;;;;;4919528;29;20059;-90
2022/03/24 11:12:43;;;;;;;;;;;18.50;37.50;;;;;;4919657;29;20020;-79
2022/03/24 11:15:09;;;;;;;3.53;2.33;;;18.50;38.40;;;;;;4919038;29;19907;-78
2022/03/24 11:17:37;;;;;;;5.47;2.85;;;18.50;37.30;;;;;;4918526;29;20111;-79
2022/03/24 11:20:15;;;;;;;5.13;2.33;;;18.50;38.80;;;;;;4919014;29;20531;-80
2022/03/24 11:23:00;;;;;;;7.32;2.97;;;18.70;38.90;;;;;;4901978;29;20032;-78
2022/03/24 11:25:28;;;;;;;5.80;2.83;;;18.80;36.70;;;;;;4902126;29;20024;-78
2022/03/24 11:27:55;;;;;;;4.78;2.65;;;18.90;39.10;;;;;;4918531;29;20038;-88
2022/03/24 11:30:22;;;;;;;3.03;2.28;;;18.90;37.80;;;;;;4918838;29;20035;-81
2022/03/24 11:32:51;;;;;;;5.45;2.20;;;19.00;36.80;;;;;;4918134;29;20112;-79
2022/03/24 11:35:17;;;;;;;3.22;2.13;;;19.00;41.00;;;;;;4917482;29;20030;-79
2022/03/24 11:37:43;;;;;;;2.70;1.90;;;19.10;36.30;;;;;;4918783;29;20106;-88
2022/03/24 11:40:11;;;;;;;4.05;2.75;;;19.10;35.90;;;;;;4901796;29;20040;-85
2022/03/24 11:42:44;;;;;;;4.30;2.58;;;19.20;35.40;;;;;;4901984;29;20020;-85
2022/03/24 11:45:17;;;;;;;2.40;2.17;;;19.20;36.60;;;;;;4902179;29;20126;-86
2022/03/24 11:47:54;;;;;;;4.32;2.15;;;19.30;35.80;;;;;;4903324;29;20086;-90
2022/03/24 11:50:45;;;;;;;3.28;2.15;;;19.30;34.80;;;;;;4903242;29;20028;-89
2022/03/24 11:53:16;;;;;;;5.05;2.80;;;19.40;35.50;;;;;;4903281;29;20028;-90
2022/03/24 11:56:03;;;;;;;2.92;2.33;;;19.40;35.90;;;;;;4903244;29;20036;-91
2022/03/24 11:58:46;;;;;;;4.88;2.35;;;19.50;35.00;;;;;;4903428;29;20030;-91
2022/03/24 12:01:21;;;;;;;5.30;2.75;;;19.50;36.20;;;;;;4903375;29;20032;-91
2022/03/24 12:03:51;;;;;;;5.65;2.85;;;19.60;35.20;;;;;;4903073;29;20024;-90
2022/03/24 12:06:18;;;;;;;4.00;2.47;;;19.60;34.40;;;;;;4902897;29;20051;-90
2022/03/24 12:09:02;;;;;;;4.15;2.30;;;19.60;34.60;;;;;;4919688;29;20032;-92
2022/03/24 12:11:31;;;;;;;3.15;2.55;;;19.60;34.50;;;;;;4902849;29;20047;-90
2022/03/24 12:14:06;;;;;;;4.93;2.60;;;19.60;34.40;;;;;;4919746;29;20073;-91
2022/03/24 12:16:34;;;;;;;3.50;2.33;;;19.70;35.20;;;;;;4919518;29;20106;-91
2022/03/24 12:19:00;;;;;;;2.72;2.17;;;19.70;35.00;;;;;;4902836;29;20044;-90
2022/03/24 12:21:30;;;;;;;3.65;2.70;;;19.70;34.30;;;;;;4919486;29;20021;-89
2022/03/24 12:24:02;;;;;;;5.50;2.65;;;19.70;34.60;;;;;;4902225;29;20056;-90
2022/03/24 12:26:36;;;;;;;3.75;2.67;;;19.70;34.40;;;;;;4902329;29;20028;-87
2022/03/24 12:29:10;;;;;;;7.20;2.55;;;19.90;34.50;;;;;;4902074;29;20027;-86
2022/03/24 12:32:00;;;;;;;5.18;2.95;;;19.90;34.60;;;;;;4901899;29;20155;-85
2022/03/24 12:34:44;;;;;;;3.38;2.45;;;20.00;35.30;;;;;;4892414;29;20516;-90
2022/03/24 12:37:35;;;;;;;5.05;2.58;;;20.20;33.80;;;;;;4902993;29;20523;-90
2022/03/24 12:40:09;;;;;;;3.15;2.60;;;20.20;33.20;;;;;;4902136;29;20047;-90
2022/03/24 12:42:54;;;;;;;4.65;2.65;;;20.20;33.60;;;;;;4902161;29;20020;-89
2022/03/24 12:45:23;;;;;;;4.85;2.70;;;20.20;33.30;;;;;;4902114;29;20035;-89
2022/03/24 12:47:49;;;;;;;4.68;2.80;;;20.10;33.20;;;;;;4901982;29;20119;-90
2022/03/24 12:50:21;;;;;;;4.82;2.83;;;20.10;33.70;;;;;;4902319;29;20035;-89
2022/03/24 12:52:51;;;;;;;3.70;2.72;;;20.20;34.50;;;;;;4902403;29;20020;-89
2022/03/24 12:55:20;;;;;;;4.82;2.70;;;20.10;34.90;;;;;;4902032;29;20035;-90
2022/03/24 12:57:55;;;;;;;4.20;2.50;;;20.20;34.40;;;;;;4901995;29;20107;-90
2022/03/24 13:00:21;;;;;;;2.63;2.42;;;20.20;34.00;;;;;;4901964;29;20163;-90
2022/03/24 13:02:48;;;;;;;3.25;2.35;;;20.30;33.20;;;;;;4901952;29;20055;-90
2022/03/24 13:05:22;;;;;;;5.25;2.60;;;20.30;32.70;;;;;;4902051;29;20031;-90
2022/03/24 13:07:49;;;;;;;4.75;2.20;;;20.30;32.90;;;;;;4901840;29;20391;-89
2022/03/24 13:10:15;;;;;;;3.45;2.45;;;20.20;34.30;;;;;;4901779;29;20032;-90
2022/03/24 13:12:46;;;;;;;4.03;2.50;;;20.20;34.90;;;;;;4901662;29;20028;-89
2022/03/24 13:15:22;;;;;;;3.75;3.17;;;20.20;33.60;;;;;;4918301;29;20080;-89
2022/03/24 13:17:53;;;;;;;4.57;2.83;;;20.40;33.20;;;;;;4901805;29;20043;-89
2022/03/24 13:20:20;;;;;;;2.78;2.58;;;20.70;33.70;;;;;;4901581;29;20090;-89
2022/03/24 13:22:48;;;;;;;3.45;2.20;;;20.90;32.80;;;;;;4901791;29;20080;-89
2022/03/24 13:25:15;;;;;;;2.78;2.58;;;20.90;31.90;;;;;;4918332;29;20063;-89
2022/03/24 13:27:44;;;;;;;3.88;2.88;;;20.70;32.20;;;;;;4901458;29;20383;-89
2022/03/24 13:30:14;;;;;;;3.85;2.80;;;20.70;32.70;;;;;;4901507;29;20035;-89
2022/03/24 13:32:41;;;;;;;14.10;3.22;;;20.60;33.40;;;;;;4901352;29;20155;-92
2022/03/24 13:35:17;;;;;;;3.78;2.80;;;20.70;32.70;;;;;;4901391;29;20079;-92
2022/03/24 13:37:48;;;;;;;3.22;2.92;;;20.70;32.00;;;;;;4901317;29;20035;-92
2022/03/24 13:40:16;;;;;;;5.50;2.80;;;20.60;32.20;;;;;;4901346;29;20373;-91
2022/03/24 13:42:43;;;;;;;4.03;2.60;;;20.50;32.70;;;;;;4901059;29;20024;-92
2022/03/24 13:45:10;;;;;;;3.10;2.42;;;20.50;33.10;;;;;;4901332;29;20111;-91
2022/03/24 13:48:00;;;;;;;4.15;2.72;;;20.60;34.30;;;;;;4901429;29;20025;-91
2022/03/24 13:50:28;;;;;;;3.05;2.40;;;20.70;34.10;;;;;;4901352;29;20028;-91
2022/03/24 13:52:55;;;;;;;2.80;2.55;;;20.60;32.50;;;;;;4901013;29;20111;-90
2022/03/24 13:55:30;;;;;;;4.70;2.53;;;20.60;33.20;;;;;;4901106;29;20032;-91
2022/03/24 13:58:11;;;;;;;3.43;2.30;;;20.60;33.60;;;;;;4900773;29;20056;-91
2022/03/24 14:00:46;;;;;;;3.67;3.17;;;20.50;34.00;;;;;;4900935;29;20131;-92
2022/03/24 14:03:16;;;;;;;5.05;2.83;;;20.50;33.40;;;;;;4901196;29;20025;-91
2022/03/24 14:06:02;;;;;;;4.88;2.63;;;20.40;33.40;;;;;;4901141;29;20036;-91
2022/03/24 14:08:42;;;;;;;2.35;2.05;;;20.40;33.90;;;;;;4901015;29;20107;-91
2022/03/24 14:11:10;;;;;;;3.78;2.70;;;20.50;33.20;;;;;;4901066;29;20028;-91
2022/03/24 14:13:47;;;;;;;3.17;2.33;;;20.60;33.30;;;;;;4901513;29;20172;-91
2022/03/24 14:16:20;;;;;;;7.80;3.10;;;20.60;34.10;;;;;;4900781;29;20384;-91
2022/03/24 14:19:05;;;;;;;4.68;2.55;;;20.60;33.00;;;;;;4900992;29;20115;-91
2022/03/24 14:21:44;;;;;;;3.33;2.08;;;20.60;33.40;;;;;;4900787;29;20032;-91
2022/03/24 14:24:20;;;;;;;3.35;2.40;;;20.70;33.50;;;;;;4900703;29;20087;-91
2022/03/24 14:27:04;;;;;;;3.15;2.10;;;20.70;33.30;;;;;;4901063;29;20024;-91
2022/03/24 14:29:31;;;;;;;4.45;2.63;;;20.60;33.10;;;;;;4900964;29;20118;-91
2022/03/24 14:32:21;;;;;;;4.43;2.30;;;20.60;33.40;;;;;;4900813;29;20060;-91
2022/03/24 14:35:23;;;;;;;3.40;3.10;;;20.70;33.20;;;;;;4901090;29;20024;-91
2022/03/24 14:37:52;;;;;;;4.50;2.63;;;20.70;33.20;;;;;;4826493;29;20033;-91
2022/03/24 14:40:29;;;;;;;4.07;2.85;;;20.60;32.80;;;;;;4887246;29;20404;-91
2022/03/24 14:43:06;;;;;;;3.15;2.70;;;20.60;33.40;;;;;;4900912;29;20055;-91
2022/03/24 14:45:34;;;;;;;5.43;3.17;;;20.60;33.80;;;;;;4900649;29;20115;-91
2022/03/24 14:48:01;;;;;;;2.65;2.45;;;20.50;33.90;;;;;;4900645;29;20029;-91
2022/03/24 14:50:28;;;;;;;4.90;2.80;;;20.40;33.80;;;;;;4900675;29;20119;-91
2022/03/24 14:52:54;;;;;;;4.93;2.80;;;20.40;33.80;;;;;;4900509;29;20029;-92
2022/03/24 14:55:19;;;;;;;5.93;3.20;;;20.40;33.90;;;;;;4900675;29;20029;-91
2022/03/24 14:57:46;;;;;;;3.50;2.90;;;20.40;33.80;;;;;;4900499;29;20484;-91
2022/03/24 15:00:15;;;;;;;3.70;2.92;;;20.40;34.40;;;;;;4900553;29;20555;-92
2022/03/24 15:02:41;;;;;;;3.55;2.65;;;20.30;34.20;;;;;;4900567;29;20033;-91
2022/03/24 15:05:08;;;;;;;5.60;2.80;;;20.30;34.00;;;;;;4901863;29;20482;-91
2022/03/24 15:07:34;;;;;;;4.78;2.90;;;20.20;33.70;;;;;;4900866;29;20108;-91
2022/03/24 15:10:04;;;;;;;6.18;3.25;;;20.20;33.70;;;;;;4917858;29;20496;-91
2022/03/24 15:12:30;;;;;;;5.65;2.65;;;20.10;34.00;;;;;;4903556;29;20024;-91
2022/03/24 15:17:40;;;;;;;4.70;2.42;;;20.20;33.30;;;;;;4920837;29;20396;-91
2022/03/24 15:20:07;;;;;;;3.53;2.83;;;20.10;33.40;;;;;;4904185;29;20119;-91
2022/03/24 15:22:34;;;;;;;6.35;3.13;;;20.10;33.60;;;;;;4903770;29;20388;-90
2022/03/24 15:24:59;;;;;;;6.20;3.10;;;20.00;34.20;;;;;;4903974;29;20543;-94
2022/03/24 15:27:27;;;;;;;3.90;2.83;;;20.00;34.10;;;;;;4904065;29;20062;-95
2022/03/24 15:29:53;;;;;;;2.88;2.58;;;19.90;34.90;;;;;;4904496;29;20028;-94
2022/03/24 15:32:19;;;;;;;7.43;3.67;;;19.90;34.90;;;;;;4903632;29;20024;-94
2022/03/24 15:34:45;;;;;;;4.65;3.58;;;19.90;35.20;;;;;;4903442;29;20032;-95
2022/03/24 15:37:10;;;;;;;5.50;4.68;;;19.90;35.50;;;;;;4903916;29;20443;-95
2022/03/24 15:39:36;;;;;;;7.20;3.60;;;20.00;35.60;;;;;;4903615;29;20502;-96
2022/03/24 15:42:03;;;;;;;6.50;3.53;;;20.00;35.60;;;;;;4903514;29;20024;-95
2022/03/24 15:44:29;;;;;;;6.55;4.30;;;20.00;35.10;;;;;;4903301;29;20052;-96
2022/03/24 15:46:55;;;;;;;8.57;3.92;;;20.00;35.10;;;;;;4903483;29;20024;-95
2022/03/24 15:49:21;;;;;;;9.00;3.75;;;19.90;35.20;;;;;;4903287;29;20035;-95
2022/03/24 15:51:47;;;;;;;5.35;4.22;;;19.80;35.40;;;;;;4903344;29;20031;-87
2022/03/24 15:54:13;;;;;;;5.82;3.83;;;19.80;35.60;;;;;;4902916;29;20028;-90
2022/03/24 15:56:39;;;;;;;5.80;3.72;;;19.70;36.40;;;;;;4919657;29;20020;-91
2022/03/24 15:59:06;;;;;;;11.85;3.85;;;19.60;36.40;;;;;;4902074;29;20062;-89
2022/03/24 16:01:32;;;;;;;8.85;4.75;;;19.50;36.70;;;;;;4903223;29;20119;-87
2022/03/24 16:03:59;;;;;;;24.40;4.70;;;19.30;36.80;;;;;;4920002;29;20524;-91
2022/03/24 16:06:25;;;;;;;7.20;3.90;;;19.30;36.80;;;;;;4905697;29;20024;-91
2022/03/24 16:08:51;;;;;;;7.63;4.88;;;19.20;36.50;;;;;;4902780;29;20143;-90
2022/03/24 16:11:17;;;;;;;6.45;5.28;;;19.00;36.80;;;;;;4903078;29;20527;-90
2022/03/24 16:13:42;;;;;;;7.45;5.40;;;18.90;36.70;;;;;;4903016;29;20066;-89
2022/03/24 16:16:08;;;;;;;7.90;4.95;;;18.70;36.70;;;;;;4906540;29;20034;-91
2022/03/24 16:18:33;;;;;;;6.38;5.03;;;18.50;46.10;;;;;;4909356;29;20119;-90
2022/03/24 16:20:59;;;;;;;9.43;5.07;;;18.50;38.40;;;;;;4902762;29;20523;-89
2022/03/24 16:23:25;;;;;;;7.60;4.50;;;18.30;37.10;;;;;;4902823;29;20075;-90
2022/03/24 16:25:51;;;;;;;10.48;4.72;;;18.20;37.30;;;;;;4902517;29;20035;-90
2022/03/24 16:28:17;;;;;;;8.70;4.78;;;18.10;37.30;;;;;;4902232;29;20460;-90
2022/03/24 16:30:42;;;;;;;6.13;4.57;;;18.00;37.40;;;;;;4902456;29;20020;-90
2022/03/24 16:33:08;;;;;;;5.85;4.07;;;17.90;37.50;;;;;;4902829;29;20032;-90
2022/03/24 16:35:34;;;;;;;10.30;4.53;;;17.80;37.60;;;;;;4902375;29;20480;-92
2022/03/24 16:38:02;;;;;;;5.30;4.18;;;17.60;43.80;;;;;;4902501;29;20111;-91
2022/03/24 16:40:28;;;;;;;9.82;4.28;;;17.50;37.80;;;;;;4919110;29;20092;-90
2022/03/24 16:42:54;;;;;;;12.82;4.47;;;17.40;38.20;;;;;;4902353;29;20460;-90
2022/03/24 16:45:20;;;;;;;9.93;4.00;;;17.30;38.10;;;;;;4902584;29;20067;-92
2022/03/24 16:47:46;;;;;;;10.95;4.40;;;17.20;38.60;;;;;;4904080;29;20052;-92
2022/03/24 16:50:14;;;;;;;6.07;4.80;;;17.00;38.60;;;;;;4905402;29;20123;-92
2022/03/24 16:52:42;;;;;;;5.47;4.75;;;16.90;38.80;;;;;;4903885;29;20035;-91
2022/03/24 16:55:10;;;;;;;8.80;5.35;;;16.80;39.00;;;;;;4904078;29;20039;-92
2022/03/24 16:57:36;;;;;;;13.85;10.65;;;16.70;40.00;;;;;;4903672;29;20079;-92
2022/03/24 17:00:05;;;;;;;9.02;6.25;;;16.50;39.80;;;;;;4901146;29;20047;-92
2022/03/24 17:02:31;;;;;;;7.90;5.05;;;16.40;39.90;;;;;;4901587;29;20051;-91
2022/03/24 17:04:56;;;;;;;11.35;5.43;;;16.30;40.40;;;;;;4902192;29;20396;-91
2022/03/24 17:07:24;;;;;;;12.90;8.20;;;16.20;40.30;;;;;;4902311;29;20487;-91
2022/03/24 17:09:50;;;;;;;106.68;74.78;;;16.10;40.50;;;;;;4901407;29;20103;-87
2022/03/24 17:12:16;;;;;;;135.18;91.78;;;15.70;40.40;;;;;;4901381;29;20035;-87
2022/03/24 17:14:43;;;;;;;11.00;7.95;;;15.90;41.00;;;;;;4901360;29;20024;-86
2022/03/24 17:17:08;;;;;;;14.80;6.90;;;15.80;41.30;;;;;;4900955;29;20028;-86
2022/03/24 17:19:35;;;;;;;10.88;6.35;;;15.70;41.50;;;;;;4901434;29;20044;-87
2022/03/24 17:22:01;;;;;;;12.20;6.47;;;15.60;41.80;;;;;;4901638;29;20028;-86
2022/03/24 17:24:26;;;;;;;19.45;11.95;;;15.50;41.80;;;;;;4901526;29;20380;-90
2022/03/24 17:26:55;;;;;;;35.55;23.10;;;15.30;42.30;;;;;;4901442;29;20087;-91
2022/03/24 17:29:25;;;;;;;12.27;7.95;;;15.10;42.70;;;;;;4901524;29;20040;-91
2022/03/24 17:31:51;;;;;;;16.83;11.55;;;14.90;42.70;;;;;;4901910;29;20028;-92
2022/03/24 17:34:18;;;;;;;13.00;9.65;;;14.80;42.90;;;;;;4901006;29;20122;-91
2022/03/24 17:36:44;;;;;;;13.75;9.90;;;14.70;43.10;;;;;;4901530;29;20035;-90
2022/03/24 17:39:10;;;;;;;15.98;7.15;;;14.50;43.30;;;;;;4901384;29;20088;-91
2022/03/24 17:41:36;;;;;;;14.52;8.23;;;14.40;44.20;;;;;;4901233;29;20057;-91
2022/03/24 17:44:04;;;;;;;17.38;10.05;;;14.20;44.00;;;;;;4902099;29;20056;-91
2022/03/24 17:46:32;;;;;;;16.65;9.60;;;14.10;53.40;;;;;;4901111;29;20020;-89
2022/03/24 17:48:58;;;;;;;13.95;7.18;;;13.80;46.50;;;;;;4901090;29;20115;-83
2022/03/24 17:51:24;;;;;;;8.73;5.47;;;13.50;48.00;;;;;;4900278;29;20376;-81
2022/03/24 17:53:53;;;;;;;13.65;6.90;;;13.10;48.30;;;;;;4902568;29;20032;-81
2022/03/24 17:56:18;;;;;;;48.03;25.63;;;12.80;49.90;;;;;;4934270;29;20028;-80
2022/03/24 17:58:44;;;;;;;25.63;13.77;;;12.50;50.70;;;;;;4909129;29;20028;-81
2022/03/24 18:01:14;;;;;;;21.08;11.55;;;12.10;51.50;;;;;;4916692;29;20028;-81
2022/03/24 18:03:40;;;;;;;10.98;6.68;;;11.80;52.00;;;;;;4996624;23;20161;-80
2022/03/24 18:06:07;;;;;;;8.05;5.15;;;11.60;52.80;;;;;;4907617;29;20085;-81
2022/03/24 18:08:34;;;;;;;9.63;5.30;;;11.30;53.30;;;;;;4908438;29;20040;-81
2022/03/24 18:11:00;;;;;;;11.40;5.43;;;11.10;53.70;;;;;;4925866;29;20024;-81
2022/03/24 18:13:26;;;;;;;11.85;4.85;;;11.00;53.90;;;;;;4907030;29;20079;-80
2022/03/24 18:15:51;;;;;;;11.38;4.53;;;11.00;59.40;;;;;;4905976;29;20024;-81
2022/03/24 18:18:22;;;;;;;9.85;4.95;;;10.60;54.90;;;;;;4904914;29;20041;-81
2022/03/24 18:20:48;;;;;;;9.20;5.47;;;10.50;55.30;;;;;;4904209;29;20162;-80
2022/03/24 18:23:14;;;;;;;8.32;5.00;;;10.40;55.90;;;;;;4909233;29;20024;-81
2022/03/24 18:25:40;;;;;;;13.30;5.38;;;10.20;56.90;;;;;;4907932;29;20035;-80
2022/03/24 18:28:06;;;;;;;11.00;5.20;;;10.10;57.30;;;;;;4925946;29;20024;-81
2022/03/24 18:30:32;;;;;;;13.13;6.13;;;9.90;57.70;;;;;;4910479;29;20060;-82
2022/03/24 18:32:58;;;;;;;12.73;6.13;;;9.80;58.10;;;;;;4910828;29;20031;-81
2022/03/24 18:35:24;;;;;;;9.10;5.70;;;9.70;58.90;;;;;;4929325;29;20091;-82
2022/03/24 18:37:50;;;;;;;18.45;7.68;;;9.60;59.10;;;;;;4910660;29;20072;-81
2022/03/24 18:40:16;;;;;;;12.30;6.53;;;9.40;59.50;;;;;;4926577;29;20114;-81
2022/03/24 18:42:41;;;;;;;26.88;13.68;;;9.70;66.70;;;;;;4907038;29;20057;-81
2022/03/24 18:45:07;;;;;;;31.80;15.20;;;9.20;60.50;;;;;;4907011;29;20506;-81
2022/03/24 18:47:34;;;;;;;22.73;11.77;;;9.10;61.30;;;;;;4909377;29;20020;-81
2022/03/24 18:50:00;;;;;;;15.70;8.25;;;8.80;61.30;;;;;;4910156;29;20621;-81
2022/03/24 18:52:26;;;;;;;18.85;8.18;;;8.90;61.70;;;;;;4906799;29;20028;-81
2022/03/24 18:54:52;;;;;;;11.02;6.78;;;8.80;62.10;;;;;;4891041;29;20095;-81
2022/03/24 18:57:18;;;;;;;31.45;13.73;;;8.70;62.10;;;;;;4908552;29;20024;-81
2022/03/24 18:59:43;;;;;;;24.23;13.18;;;8.60;62.10;;;;;;4924785;29;20038;-81
2022/03/24 19:02:09;;;;;;;27.67;11.95;;;8.50;62.50;;;;;;4908447;29;20076;-81
2022/03/24 19:04:35;;;;;;;25.55;12.10;;;8.40;63.40;;;;;;4907954;29;20132;-80
2022/03/24 19:07:02;;;;;;;24.40;12.32;;;8.30;63.60;;;;;;4907353;29;20115;-81
2022/03/24 19:09:28;;;;;;;23.73;11.20;;;8.40;63.30;;;;;;4906615;29;20480;-81
2022/03/24 19:11:57;;;;;;;21.85;10.02;;;8.30;63.80;;;;;;4924700;29;20036;-81
2022/03/24 19:14:24;;;;;;;30.25;11.30;;;8.20;63.90;;;;;;4906856;29;20051;-82
2022/03/24 19:16:50;;;;;;;29.85;13.25;;;8.10;64.80;;;;;;4906753;29;20388;-81
2022/03/24 19:19:16;;;;;;;33.30;15.43;;;8.10;64.30;;;;;;4924612;29;20620;-81
2022/03/24 19:21:42;;;;;;;46.80;17.23;;;8.00;65.20;;;;;;4909997;29;20081;-81
2022/03/24 19:24:08;;;;;;;43.78;17.05;;;8.10;65.70;;;;;;4906757;29;20047;-81
2022/03/24 19:26:35;;;;;;;37.47;15.00;;;8.20;71.10;;;;;;4906688;29;20060;-82
2022/03/24 19:29:01;;;;;;;50.90;19.77;;;7.90;81.70;;;;;;4925808;29;20031;-81
2022/03/24 19:31:26;;;;;;;58.90;20.40;;;7.60;81.60;;;;;;4915646;29;20056;-81
2022/03/24 19:33:54;;;;;;;55.60;19.23;;;7.70;96.80;;;;;;4917008;29;20046;-82
2022/03/24 19:36:24;;;;;;;81.43;26.17;;;;;;;;;;4915972;29;20123;-83
2022/03/24 19:38:50;;;;;;;61.53;18.92;;;7.60;78.90;;;;;;4916527;29;20024;-81
2022/03/24 19:41:16;;;;;;;41.22;14.65;;;8.00;77.00;;;;;;4923973;29;20357;-80
2022/03/24 19:43:43;;;;;;;37.03;13.13;;;7.70;78.90;;;;;;4923385;29;20810;-82
2022/03/24 19:46:11;;;;;;;38.67;13.25;;;7.60;76.20;;;;;;4906497;29;20039;-81
2022/03/24 19:48:37;;;;;;;22.55;10.10;;;7.30;78.30;;;;;;4928607;29;20028;-82
2022/03/24 19:51:02;;;;;;;24.15;10.25;;;7.50;79.60;;;;;;4927908;29;20039;-81
2022/03/24 19:53:28;;;;;;;21.15;9.77;;;7.50;80.00;;;;;;4924608;29;20028;-81
2022/03/24 19:55:53;;;;;;;18.33;10.55;;;7.30;80.10;;;;;;4905460;29;20035;-81
2022/03/24 19:58:20;;;;;;;21.88;12.05;;;7.50;80.90;;;;;;4909333;29;20031;-81
2022/03/24 20:00:46;;;;;;;23.23;12.48;;;7.20;72.40;;;;;;4907575;29;20078;-80
2022/03/24 20:03:11;;;;;;;18.70;10.27;;;7.00;67.50;;;;;;4921939;29;20392;-81
2022/03/24 20:05:37;;;;;;;24.52;11.13;;;6.90;68.30;;;;;;4921996;29;20613;-81
2022/03/24 20:08:03;;;;;;;22.33;13.35;;;6.80;68.50;;;;;;4905613;29;20047;-80
2022/03/24 20:10:29;;;;;;;26.40;13.18;;;6.80;69.20;;;;;;4893282;29;20040;-81
2022/03/24 20:12:55;;;;;;;22.67;12.55;;;6.70;69.30;;;;;;4924882;29;20032;-81
2022/03/24 20:15:20;;;;;;;21.98;10.82;;;6.60;69.50;;;;;;4908559;29;20024;-81
2022/03/24 20:17:51;;;;;;;17.30;9.85;;;6.50;69.80;;;;;;4910443;29;20490;-82
2022/03/24 20:20:18;;;;;;;16.67;9.82;;;6.50;69.60;;;;;;4910085;29;20046;-82
2022/03/24 20:22:44;;;;;;;13.70;8.50;;;6.80;69.80;;;;;;4909812;29;20035;-82
2022/03/24 20:25:10;;;;;;;16.58;8.35;;;6.40;70.70;;;;;;4926640;29;20059;-81
2022/03/24 20:27:38;;;;;;;15.65;8.50;;;7.10;72.30;;;;;;4909947;29;20035;-82
2022/03/24 20:30:06;;;;;;;15.90;8.18;;;7.30;71.90;;;;;;4908150;29;20024;-81
2022/03/24 20:32:35;;;;;;;18.15;11.38;;;6.40;71.10;;;;;;4925735;29;20032;-81
2022/03/24 20:35:01;;;;;;;14.07;8.35;;;7.10;71.00;;;;;;4909129;29;20041;-81
2022/03/24 20:37:27;;;;;;;16.42;7.80;;;6.50;70.60;;;;;;4925929;29;20381;-81
2022/03/24 20:39:53;;;;;;;16.80;8.18;;;7.50;72.30;;;;;;4907480;29;20132;-81
2022/03/24 20:42:20;;;;;;;18.25;8.00;;;7.40;72.60;;;;;;4907328;29;20028;-81
2022/03/24 20:44:46;;;;;;;12.15;7.88;;;7.00;71.90;;;;;;4907172;29;20051;-81
2022/03/24 20:47:12;;;;;;;17.17;9.35;;;6.00;70.50;;;;;;4907040;29;20149;-81
2022/03/24 20:49:38;;;;;;;14.95;8.13;;;5.90;70.40;;;;;;4923842;29;20054;-81
2022/03/24 20:52:04;;;;;;;16.50;9.35;;;6.10;70.90;;;;;;4923109;29;20024;-81
2022/03/24 20:54:29;;;;;;;17.05;9.45;;;5.90;71.20;;;;;;4922879;29;20024;-80
2022/03/24 20:56:55;;;;;;;19.75;9.50;;;6.00;71.00;;;;;;4905620;29;20064;-81
2022/03/24 20:59:21;;;;;;;14.70;8.80;;;5.90;70.50;;;;;;4923335;29;20099;-81
2022/03/24 21:01:47;;;;;;;20.80;10.13;;;5.90;70.60;;;;;;4905955;29;20028;-80
2022/03/24 21:04:14;;;;;;;17.77;9.55;;;5.90;70.50;;;;;;4923356;29;20488;-81